Time;durP1;ratioP1;P1;durP2;ratioP2;P2;SDS_P1;SDS_P2;PMS_P1;PMS_P2;Temp;Humidity;BMP_temperature;BMP_pressure;BME280_temperature;BME280_humidity;BME280_pressure;Samples;Min_cycle;Max_cycle;Signal;HPM_P1;HPM_P2
2022/05/16 00:02:05;;;;;;;6.03;3.73;;;;;;;8.91;75.59;95966.59;1789364;80;20955;-68
2022/05/16 00:04:32;;;;;;;6.57;4.50;;;;;;;8.85;75.81;95966.20;1789354;80;21031;-68
2022/05/16 00:06:58;;;;;;;5.03;4.60;;;;;;;8.79;76.72;95972.79;1789424;80;21034;-68
2022/05/16 00:09:25;;;;;;;5.47;3.97;;;;;;;8.73;77.71;95968.89;1789344;80;21531;-69
2022/05/16 00:11:51;;;;;;;4.93;4.13;;;;;;;8.65;78.03;95967.63;1789398;80;21004;-69
2022/05/16 00:14:18;;;;;;;4.97;4.13;;;;;;;8.61;77.70;95966.32;1789405;80;21062;-69
2022/05/16 00:16:44;;;;;;;4.40;3.97;;;;;;;8.57;78.07;95970.73;1789498;80;21011;-69
2022/05/16 00:19:11;;;;;;;5.77;3.80;;;;;;;8.61;77.52;95963.24;1789378;80;21046;-69
2022/05/16 00:21:37;;;;;;;6.03;4.03;;;;;;;8.67;77.33;95964.99;1789498;80;20986;-68
2022/05/16 00:24:05;;;;;;;4.20;3.80;;;;;;;8.73;77.09;95961.45;1762858;80;21078;-69
2022/05/16 00:26:34;;;;;;;6.07;3.73;;;;;;;8.72;76.80;95960.58;1789528;80;21026;-69
2022/05/16 00:29:00;;;;;;;4.03;3.20;;;;;;;8.74;76.47;95955.29;1789349;80;21007;-69
2022/05/16 00:31:27;;;;;;;3.80;3.50;;;;;;;8.68;78.12;95955.34;1789474;80;20985;-69
2022/05/16 00:33:54;;;;;;;5.87;3.27;;;;;;;8.69;77.68;95961.02;1789376;80;21091;-69
2022/05/16 00:36:20;;;;;;;4.53;3.30;;;;;;;8.75;77.46;95956.61;1789377;80;21469;-68
2022/05/16 00:38:46;;;;;;;3.43;3.10;;;;;;;8.82;77.25;95959.64;1789285;80;21473;-68
2022/05/16 00:41:13;;;;;;;7.23;3.60;;;;;;;8.85;76.94;95957.44;1789371;80;21041;-68
2022/05/16 00:43:57;;;;;;;4.00;3.07;;;;;;;8.77;77.53;95961.84;1789428;80;21473;-68
2022/05/16 00:46:29;;;;;;;3.75;2.98;;;;;;;8.76;77.60;95961.42;1789617;80;21029;-68
2022/05/16 00:48:58;;;;;;;3.50;3.08;;;;;;;8.68;77.82;95953.58;1789521;80;21114;-69
2022/05/16 00:51:36;;;;;;;3.87;2.97;;;;;;;8.74;78.02;95957.47;1789428;80;21018;-68
2022/05/16 00:54:25;;;;;;;5.87;3.47;;;;;;;8.81;77.49;95957.01;1787189;80;21025;-69
2022/05/16 00:56:57;;;;;;;2.87;2.63;;;;;;;8.82;77.29;95960.96;1786073;80;20971;-69
2022/05/16 00:59:29;;;;;;;3.30;3.00;;;;;;;8.90;77.64;95951.70;1786136;80;21046;-69
2022/05/16 01:04:48;;;;;;;4.67;3.30;;;;;;;8.86;77.54;95952.14;1785991;80;21011;-69
2022/05/16 01:07:27;;;;;;;;;;;;;;;8.87;77.71;95951.73;1788721;80;21022;-69
2022/05/16 01:09:54;;;;;;;4.77;3.30;;;;;;;8.92;78.28;95956.94;1785823;80;20456;-69
2022/05/16 01:12:26;;;;;;;5.17;3.60;;;;;;;8.92;77.49;95951.25;1786026;80;20991;-69
2022/05/16 01:14:56;;;;;;;4.57;4.17;;;;;;;8.92;77.69;95947.72;1783636;80;21508;-69
2022/05/16 01:17:23;;;;;;;4.73;4.20;;;;;;;8.99;77.36;95945.04;1785973;80;20996;-69
2022/05/16 01:19:50;;;;;;;5.77;4.30;;;;;;;8.99;77.42;95948.98;1786078;80;21007;-69
2022/05/16 01:22:39;;;;;;;5.37;4.07;;;;;;;8.91;77.32;95949.48;1786037;80;20998;-69
2022/05/16 01:25:17;;;;;;;5.77;3.83;;;;;;;8.85;77.40;95945.59;1785744;80;21497;-69
2022/05/16 01:27:55;;;;;;;5.00;4.20;;;;;;;8.77;77.53;95948.69;1786109;80;21014;-69
2022/05/16 01:30:27;;;;;;;5.37;4.17;;;;;;;8.71;78.71;95940.84;1785929;80;20999;-69
2022/05/16 01:32:54;;;;;;;5.13;4.30;;;;;;;8.63;79.02;95936.94;1784230;80;20989;-68
2022/05/16 01:35:25;;;;;;;7.93;4.27;;;;;;;8.55;78.12;95936.13;1786076;80;21003;-69
2022/05/16 01:40:38;;;;;;;5.37;4.10;;;;;;;8.45;78.85;95933.97;1786005;80;21007;-69
2022/05/16 01:43:06;;;;;;;5.83;4.50;;;;;;;8.39;79.16;95932.25;1785995;80;20991;-69
2022/05/16 01:45:33;;;;;;;5.07;4.13;;;;;;;8.36;79.37;95935.28;1785713;80;20995;-69
2022/05/16 01:47:59;;;;;;;7.83;4.37;;;;;;;8.34;79.94;95927.42;1785983;80;21003;-69
2022/05/16 01:50:26;;;;;;;5.73;4.37;;;;;;;8.32;79.60;95934.89;1785960;80;21512;-69
2022/05/16 01:52:53;;;;;;;5.50;4.40;;;;;;;8.28;79.55;95927.88;1785832;80;21504;-69
2022/05/16 01:55:20;;;;;;;4.67;4.20;;;;;;;8.32;79.16;95930.95;1785997;80;21046;-69
2022/05/16 01:57:47;;;;;;;5.37;4.10;;;;;;;8.35;78.62;95926.98;1785946;80;21505;-69
2022/05/16 02:00:15;;;;;;;6.37;4.13;;;;;;;8.28;78.73;95922.63;1786029;80;21015;-69
2022/05/16 02:02:42;;;;;;;5.07;3.33;;;;;;;8.33;78.64;95923.48;1785947;80;21003;-69
2022/05/16 02:05:16;;;;;;;8.23;3.70;;;;;;;8.24;79.40;95915.20;1785461;80;21030;-69
2022/05/16 02:07:43;;;;;;;5.63;3.63;;;;;;;8.21;79.49;95917.82;1784747;80;21387;-69
2022/05/16 02:10:15;;;;;;;7.23;3.83;;;;;;;8.21;79.30;95917.41;1785947;80;21529;-69
2022/05/16 02:12:42;;;;;;;5.55;3.72;;;;;;;8.23;79.58;95917.38;1786013;80;21011;-69
2022/05/16 02:15:14;;;;;;;5.60;3.70;;;;;;;8.24;79.14;95913.89;1786040;80;21019;-69
2022/05/16 02:17:41;;;;;;;4.55;3.83;;;;;;;8.22;79.02;95919.14;1785412;80;21055;-69
2022/05/16 02:20:09;;;;;;;4.13;3.40;;;;;;;8.28;79.37;95910.80;1785611;80;20992;-69
2022/05/16 02:25:20;;;;;;;7.73;3.10;;;;;;;8.16;78.65;95913.02;1785960;80;21050;-69
2022/05/16 02:27:49;;;;;;;7.00;3.30;;;;;;;8.16;79.37;95911.27;1786013;80;21023;-69
2022/05/16 02:30:17;;;;;;;7.17;3.70;;;;;;;8.13;78.93;95912.59;1786009;80;21015;-69
2022/05/16 02:32:44;;;;;;;3.93;2.83;;;;;;;8.15;79.73;95916.55;1785893;80;21006;-69
2022/05/16 02:35:11;;;;;;;5.10;3.43;;;;;;;8.12;78.89;95919.20;1785993;80;20971;-69
2022/05/16 02:37:38;;;;;;;4.90;3.40;;;;;;;8.09;79.41;95912.61;1786041;80;21477;-69
2022/05/16 02:40:07;;;;;;;6.17;3.77;;;;;;;8.11;79.20;95920.92;1785758;80;21014;-69
2022/05/16 02:42:34;;;;;;;7.20;3.77;;;;;;;8.05;78.70;95920.09;1785939;80;21511;-69
2022/05/16 02:45:00;;;;;;;7.00;4.30;;;;;;;8.07;78.94;95910.01;1785894;80;21058;-69
2022/05/16 02:47:27;;;;;;;4.83;3.63;;;;;;;8.11;79.14;95913.48;1785956;80;21007;-69
2022/05/16 02:49:54;;;;;;;4.87;4.30;;;;;;;8.10;79.30;95908.67;1786006;80;21017;-69
2022/05/16 02:52:20;;;;;;;4.97;3.70;;;;;;;8.10;79.02;95911.75;1785879;80;20995;-69
2022/05/16 02:54:47;;;;;;;5.80;4.20;;;;;;;8.02;79.20;95923.16;1785601;80;21042;-69
2022/05/16 02:57:14;;;;;;;7.77;5.20;;;;;;;7.85;78.60;95921.47;1786027;80;21010;-69
2022/05/16 02:59:40;;;;;;;7.23;5.20;;;;;;;7.73;79.32;95928.92;1785922;80;21041;-69
2022/05/16 03:02:09;;;;;;;6.37;3.97;;;;;;;7.72;79.84;95930.69;1785820;80;21054;-69
2022/05/16 03:04:37;;;;;;;5.70;5.20;;;;;;;7.67;80.15;95929.82;1786073;80;21050;-69
2022/05/16 03:07:05;;;;;;;6.07;3.80;;;;;;;7.59;80.46;95930.28;1786089;80;21078;-69
2022/05/16 03:09:33;;;;;;;6.17;4.50;;;;;;;7.64;80.87;95926.34;1785952;80;21022;-69
2022/05/16 03:12:01;;;;;;;6.47;5.47;;;;;;;7.63;80.99;95925.44;1786094;80;20983;-69
2022/05/16 03:14:28;;;;;;;5.53;4.93;;;;;;;7.60;80.55;95933.33;1786090;80;21037;-69
2022/05/16 03:16:54;;;;;;;5.10;4.60;;;;;;;7.61;80.79;95933.78;1786110;80;21524;-69
2022/05/16 03:19:21;;;;;;;4.17;3.77;;;;;;;7.58;81.15;95931.14;1786070;80;20972;-69
2022/05/16 03:21:48;;;;;;;4.80;4.40;;;;;;;7.59;81.03;95938.16;1786113;80;21042;-69
2022/05/16 03:24:15;;;;;;;4.83;3.77;;;;;;;7.65;81.29;95932.88;1786183;80;20991;-69
2022/05/16 03:26:41;;;;;;;5.40;4.00;;;;;;;7.62;81.61;95933.34;1786120;80;21014;-69
2022/05/16 03:29:11;;;;;;;5.33;4.60;;;;;;;7.66;81.69;95935.06;1785999;80;21054;-69
2022/05/16 03:31:39;;;;;;;10.10;6.30;;;;;;;7.58;81.16;95932.45;1786258;80;21112;-69
2022/05/16 03:34:07;;;;;;;13.00;8.10;;;;;;;7.51;81.16;95935.55;1786115;80;20994;-70
2022/05/16 03:36:34;;;;;;;9.93;8.00;;;;;;;7.55;81.36;95932.02;1786001;80;21035;-69
2022/05/16 03:41:46;;;;;;;7.27;6.07;;;;;;;7.82;81.81;95938.55;1786122;80;20999;-69
2022/05/16 03:44:12;;;;;;;8.70;5.10;;;;;;;7.95;81.66;95929.75;1786014;80;20967;-69
2022/05/16 03:46:39;;;;;;;7.77;5.60;;;;;;;8.10;81.60;95931.46;1755393;80;21082;-69
2022/05/16 03:49:06;;;;;;;7.60;5.17;;;;;;;8.21;81.16;95929.65;1786203;80;20999;-69
2022/05/16 03:51:33;;;;;;;6.83;4.47;;;;;;;8.34;80.69;95927.42;1786188;80;21003;-69
2022/05/16 03:54:00;;;;;;;5.03;4.53;;;;;;;8.48;80.31;95933.08;1787570;80;21050;-69
2022/05/16 03:56:28;;;;;;;5.90;5.00;;;;;;;8.57;80.15;95928.66;1791374;80;21552;-69
2022/05/16 03:58:57;;;;;;;10.73;5.70;;;;;;;8.74;80.36;95934.24;1791664;80;21038;-68
2022/05/16 04:01:25;;;;;;;7.70;5.40;;;;;;;8.87;79.81;95937.25;1791590;80;21019;-69
2022/05/16 04:03:52;;;;;;;8.73;4.60;;;;;;;8.92;79.46;95938.09;1791639;80;20951;-69
2022/05/16 04:06:18;;;;;;;6.00;4.60;;;;;;;9.01;79.14;95932.75;1791555;80;20990;-69
2022/05/16 04:08:46;;;;;;;7.67;5.27;;;;;;;9.09;79.25;95940.14;1791701;79;21496;-69
2022/05/16 04:11:16;;;;;;;10.20;7.47;;;;;;;9.23;79.15;95943.14;1791422;80;21448;-69
2022/05/16 04:13:44;;;;;;;7.77;7.07;;;;;;;9.35;78.55;95936.45;1791596;80;21015;-69
2022/05/16 04:16:11;;;;;;;8.00;6.43;;;;;;;9.41;78.53;95940.79;1791595;79;20999;-69
2022/05/16 04:18:37;;;;;;;10.27;6.40;;;;;;;9.45;79.02;95941.17;1791637;80;21026;-69
2022/05/16 04:21:05;;;;;;;8.00;5.90;;;;;;;9.63;78.99;95944.11;1791683;80;21018;-69
2022/05/16 04:23:32;;;;;;;6.37;5.30;;;;;;;9.75;78.55;95943.55;1791720;80;20967;-69
2022/05/16 04:25:59;;;;;;;6.80;5.77;;;;;;;9.86;77.36;95947.39;1791418;80;21567;-69
2022/05/16 04:28:26;;;;;;;7.23;5.37;;;;;;;9.95;77.67;95940.72;1791604;80;21034;-69
2022/05/16 04:30:53;;;;;;;8.53;5.60;;;;;;;10.01;76.79;95938.91;1791652;80;21521;-69
2022/05/16 04:33:19;;;;;;;6.27;5.43;;;;;;;10.05;77.36;95944.09;1791643;80;20978;-68
2022/05/16 04:35:46;;;;;;;10.37;5.67;;;;;;;10.13;77.67;95949.28;1791673;80;21015;-69
2022/05/16 04:38:13;;;;;;;7.47;5.27;;;;;;;10.15;77.42;95948.41;1791602;80;21524;-69
2022/05/16 04:42:40;;;;;;;8.00;6.23;;;;;;;10.19;77.24;95944.83;1791347;79;21002;-69
2022/05/16 04:43:08;;;;;;;8.63;6.20;;;;;;;10.29;77.45;95954.00;1790673;80;20991;-69
2022/05/16 04:45:36;;;;;;;9.00;6.03;;;;;;;10.37;77.51;95954.31;1791717;79;21046;-69
2022/05/16 04:48:06;;;;;;;11.97;6.23;;;;;;;10.42;77.09;95953.40;1791646;80;21022;-69
2022/05/16 04:50:33;;;;;;;12.27;5.70;;;;;;;10.51;77.41;95946.70;1791586;80;20984;-69
2022/05/16 04:53:01;;;;;;;10.30;6.30;;;;;;;10.60;77.10;95945.24;1791549;79;20983;-69
2022/05/16 04:55:30;;;;;;;5.97;5.37;;;;;;;10.66;77.07;95945.60;1787082;80;21027;-69
2022/05/16 04:57:59;;;;;;;8.73;5.43;;;;;;;10.76;77.34;95942.84;1786004;80;21540;-68
2022/05/16 05:00:27;;;;;;;5.53;4.40;;;;;;;10.86;76.92;95947.55;1785701;80;21053;-71
2022/05/16 05:02:54;;;;;;;5.90;4.90;;;;;;;10.98;75.71;95944.70;1785727;80;21062;-67
2022/05/16 05:05:21;;;;;;;9.93;4.93;;;;;;;11.17;75.51;95943.14;1785439;80;20979;-69
2022/05/16 05:07:47;;;;;;;7.87;5.30;;;;;;;11.34;75.68;95942.84;1785930;80;21453;-69
2022/05/16 05:15:50;;;;;;;5.17;4.67;;;;;;;11.56;75.09;95944.70;1785782;80;21003;-71
2022/05/16 05:18:16;;;;;;;5.50;5.00;;;;;;;11.62;74.60;95941.97;1786010;80;21014;-70
2022/05/16 05:20:44;;;;;;;12.50;5.30;;;;;;;11.74;74.76;95937.77;1786049;80;20999;-74
2022/05/16 05:23:11;;;;;;;7.25;5.30;;;;;;;11.91;74.52;95930.89;1785531;80;21086;-71
2022/05/16 05:25:38;;;;;;;13.03;5.43;;;;;;;12.07;73.75;95936.33;1785752;80;21023;-70
2022/05/16 05:28:05;;;;;;;9.68;4.22;;;;;;;12.24;73.59;95939.95;1785888;80;20983;-71
2022/05/16 05:30:32;;;;;;;7.92;4.05;;;;;;;12.42;73.16;95937.39;1786110;80;21449;-71
2022/05/16 05:32:59;;;;;;;6.55;4.30;;;;;;;12.62;73.24;95930.36;1785088;80;21058;-72
2022/05/16 05:35:29;;;;;;;10.50;4.28;;;;;;;12.84;72.88;95937.86;1784673;80;21045;-69
2022/05/16 05:37:56;;;;;;;5.90;4.17;;;;;;;13.02;71.56;95938.77;1785816;80;21078;-69
2022/05/16 05:40:23;;;;;;;4.12;3.52;;;;;;;13.19;72.28;95929.98;1784834;80;21050;-69
2022/05/16 05:42:50;;;;;;;6.87;3.77;;;;;;;13.41;72.22;95939.66;1784173;80;21045;-71
2022/05/16 05:45:18;;;;;;;5.00;3.37;;;;;;;13.61;69.76;95943.14;1784953;80;21102;-66
2022/05/16 05:47:44;;;;;;;4.87;3.45;;;;;;;13.76;69.87;95928.63;1786687;80;21096;-68
2022/05/16 05:50:11;;;;;;;4.45;3.20;;;;;;;13.98;69.53;95928.92;1786369;80;21015;-67
2022/05/16 05:52:38;;;;;;;4.53;3.90;;;;;;;14.22;68.47;95931.37;1786834;80;20986;-80
2022/05/16 05:55:06;;;;;;;10.90;3.92;;;;;;;14.43;69.19;95929.90;1790398;80;21555;-67
2022/05/16 05:57:33;;;;;;;4.83;3.70;;;;;;;14.63;68.53;95922.72;1788044;80;20982;-69
2022/05/16 06:00:00;;;;;;;6.20;5.30;;;;;;;14.85;67.43;95922.97;1762474;81;21006;-69
2022/05/16 06:02:27;;;;;;;6.83;3.80;;;;;;;15.04;67.88;95920.60;1762863;81;21061;-70
2022/05/16 06:04:53;;;;;;;6.37;3.95;;;;;;;15.24;67.47;95919.12;1812537;79;21046;-69
2022/05/16 06:07:20;;;;;;;5.67;3.72;;;;;;;15.42;67.21;95917.66;1763162;81;21069;-69
2022/05/16 06:09:46;;;;;;;7.53;4.15;;;;;;;15.64;65.82;95911.18;1812716;79;21034;-76
2022/05/16 06:12:13;;;;;;;5.22;3.87;;;;;;;15.79;66.08;95912.02;1812794;79;21042;-69
2022/05/16 06:14:43;;;;;;;4.60;3.50;;;;;;;15.96;66.23;95915.45;1762910;81;21038;-70
2022/05/16 06:17:08;;;;;;;4.97;3.80;;;;;;;16.14;65.69;95903.28;1813008;79;21042;-69
2022/05/16 06:19:36;;;;;;;5.65;3.55;;;;;;;16.32;65.01;95907.94;1813172;79;21018;-69
2022/05/16 06:22:03;;;;;;;9.45;4.15;;;;;;;16.44;64.53;95907.50;1785185;79;20987;-69
2022/05/16 06:27:17;;;;;;;9.75;4.00;;;;;;;16.61;64.93;95906.88;1813397;79;21046;-66
2022/05/16 06:29:43;;;;;;;5.37;3.87;;;;;;;16.76;65.00;95900.11;1784151;79;21361;-67
2022/05/16 06:32:10;;;;;;;12.47;4.00;;;;;;;16.83;64.43;95904.32;1762713;81;21076;-73
2022/05/16 06:34:36;;;;;;;9.23;3.98;;;;;;;16.93;63.99;95907.94;1804492;79;21005;-70
2022/05/16 06:37:03;;;;;;;6.42;3.67;;;;;;;17.06;63.82;95906.09;1751403;80;21009;-69
2022/05/16 06:39:30;;;;;;;7.10;4.00;;;;;;;17.17;61.52;95903.00;1793342;80;21321;-74
2022/05/16 06:41:57;;;;;;;8.48;6.70;;;;;;;17.23;60.53;95897.88;1793434;80;21049;-72
2022/05/16 06:44:23;;;;;;;8.65;4.37;;;;;;;17.30;61.14;95895.38;1792674;80;21681;-69
2022/05/16 06:46:50;;;;;;;5.37;3.22;;;;;;;17.71;61.40;95886.13;1787182;80;21666;-73
2022/05/16 06:49:17;;;;;;;4.15;3.15;;;;;;;17.71;61.40;95886.13;1787852;80;21085;-71
2022/05/16 06:51:44;;;;;;;6.80;3.22;;;;;;;17.89;59.73;95889.41;1787171;80;21516;-66
2022/05/16 06:54:11;;;;;;;8.00;4.87;;;;;;;18.07;60.12;95882.88;1787658;80;21050;-67
2022/05/16 06:56:37;;;;;;;8.03;3.65;;;;;;;18.19;56.72;95881.45;1781385;80;21039;-69
2022/05/16 06:59:04;;;;;;;7.28;3.62;;;;;;;18.22;56.38;95882.20;1782257;80;21043;-68
2022/05/16 07:01:31;;;;;;;6.92;3.58;;;;;;;18.31;57.75;95886.25;1782267;80;21065;-70
2022/05/16 07:03:58;;;;;;;11.48;4.03;;;;;;;18.29;57.76;95890.79;1782338;80;21157;-67
2022/05/16 07:06:24;;;;;;;7.03;3.50;;;;;;;18.29;58.00;95892.98;1782839;80;21046;-68
2022/05/16 07:08:51;;;;;;;13.95;4.25;;;;;;;18.33;58.39;95892.41;1772266;80;21067;-67
2022/05/16 07:11:18;;;;;;;13.22;3.80;;;;;;;18.48;58.65;95886.38;1774170;81;21043;-68
2022/05/16 07:13:45;;;;;;;64.50;12.98;;;;;;;18.69;58.03;95887.19;1771393;81;21101;-67
2022/05/16 07:16:11;;;;;;;257.43;38.78;;;;;;;18.85;55.67;95890.52;1737811;81;21014;-67
2022/05/16 07:18:38;;;;;;;289.72;32.30;;;;;;;19.06;56.97;95881.51;1770075;81;21049;-68
2022/05/16 07:21:05;;;;;;;19.05;4.87;;;;;;;19.26;56.74;95882.38;1769153;81;21085;-68
2022/05/16 07:23:31;;;;;;;268.95;47.95;;;;;;;19.42;55.77;95884.20;1768754;81;21104;-68
2022/05/16 07:28:43;;;;;;;22.07;5.62;;;;;;;19.77;55.27;95880.77;1769236;81;21069;-66
2022/05/16 07:31:10;;;;;;;36.68;6.40;;;;;;;19.88;51.57;95875.72;1768812;81;21061;-66
2022/05/16 07:33:37;;;;;;;8.68;3.12;;;;;;;20.02;51.64;95873.70;1769597;81;21057;-66
2022/05/16 07:36:05;;;;;;;19.85;4.58;;;;;;;20.20;51.09;95878.56;1769984;81;20983;-74
2022/05/16 07:38:33;;;;;;;8.13;3.02;;;;;;;20.36;50.51;95882.20;1769077;81;21133;-71
2022/05/16 07:41:00;;;;;;;10.78;3.95;;;;;;;20.49;50.52;95879.73;1768541;81;21057;-70
2022/05/16 07:43:27;;;;;;;10.00;4.00;;;;;;;20.71;50.12;95882.14;1768446;81;21070;-68
2022/05/16 07:45:55;;;;;;;8.00;2.90;;;;;;;20.88;46.12;95885.25;1769625;81;21545;-74
2022/05/16 07:48:22;;;;;;;5.87;2.90;;;;;;;21.02;44.98;95885.37;1769069;81;21085;-69
2022/05/16 07:50:49;;;;;;;14.73;4.70;;;;;;;21.21;44.23;95884.33;1769114;81;21019;-72
2022/05/16 07:53:17;;;;;;;8.05;3.00;;;;;;;21.41;44.15;95885.93;1769802;81;21148;-73
2022/05/16 07:55:48;;;;;;;20.12;6.33;;;;;;;21.45;40.62;95890.19;1769521;81;21134;-70
2022/05/16 07:58:15;;;;;;;6.60;3.15;;;;;;;21.55;39.13;95884.19;1769300;81;21042;-68
2022/05/16 08:00:42;;;;;;;6.00;2.75;;;;;;;21.67;37.74;95887.11;1769689;81;21085;-69
2022/05/16 08:03:12;;;;;;;9.73;3.47;;;;;;;21.68;37.75;95884.83;1769562;81;21136;-69
2022/05/16 08:05:39;;;;;;;6.53;2.67;;;;;;;21.87;40.30;95887.30;1765442;81;21068;-69
2022/05/16 08:10:53;;;;;;;9.58;2.60;;;;;;;21.89;36.71;95892.97;1773088;81;21042;-69
2022/05/16 08:13:20;;;;;;;2.27;1.72;;;;;;;21.97;38.24;95900.58;1773371;81;20987;-70
2022/05/16 08:15:46;;;;;;;3.87;2.05;;;;;;;22.08;36.72;95904.00;1773127;81;21091;-69
2022/05/16 08:18:13;;;;;;;3.30;2.12;;;;;;;22.24;36.74;95893.59;1773401;81;20990;-66
2022/05/16 08:20:43;;;;;;;3.52;2.10;;;;;;;22.19;34.85;95893.45;1773039;81;21010;-67
2022/05/16 08:23:12;;;;;;;3.83;2.10;;;;;;;22.04;34.54;95901.47;1773109;81;21060;-70
2022/05/16 08:25:40;;;;;;;3.05;1.80;;;;;;;22.14;34.92;95899.09;1773466;81;21073;-74
2022/05/16 08:28:07;;;;;;;3.45;1.65;;;;;;;22.29;35.12;95900.53;1773380;81;20962;-71
2022/05/16 08:30:34;;;;;;;3.77;1.80;;;;;;;22.55;36.15;95895.76;1773105;81;21042;-69
2022/05/16 08:33:02;;;;;;;2.90;2.15;;;;;;;22.84;35.36;95898.49;1772868;81;21038;-67
2022/05/16 08:35:30;;;;;;;6.15;2.50;;;;;;;22.75;32.53;95901.74;1773115;81;21018;-67
2022/05/16 08:41:04;;;;;;;6.33;2.00;;;;;;;22.89;35.13;95891.86;1773513;81;20997;-66
2022/05/16 08:43:39;;;;;;;5.87;2.77;;;;;;;23.17;35.43;95895.53;1772645;81;21073;-67
2022/05/16 08:49:39;;;;;;;8.15;2.75;;;;;;;23.48;33.52;95902.48;1671084;85;21026;-65
2022/05/16 08:52:23;;;;;;;5.85;2.35;;;;;;;23.35;32.31;95900.70;1658098;86;21068;-70
2022/05/16 08:55:10;;;;;;;16.05;3.90;;;;;;;23.06;31.65;95900.25;1658198;86;21530;-69
2022/05/16 08:57:48;;;;;;;6.12;3.10;;;;;;;23.09;33.16;95903.23;1657500;86;21045;-71
2022/05/16 09:00:41;;;;;;;8.83;4.45;;;;;;;23.30;31.91;95902.34;1675705;85;21056;-70
2022/05/16 09:03:13;;;;;;;44.18;7.20;;;;;;;23.36;33.05;95906.00;1684496;85;21060;-68
2022/05/16 09:05:51;;;;;;;5.30;1.70;;;;;;;23.69;33.87;95904.28;1684738;85;21147;-66
2022/05/16 09:08:53;;;;;;;4.33;1.90;;;;;;;23.87;31.18;95909.45;1681563;85;21581;-65
2022/05/16 09:11:31;;;;;;;6.55;2.00;;;;;;;23.66;30.43;95920.66;1682397;85;21052;-65
2022/05/16 09:14:08;;;;;;;12.28;3.40;;;;;;;23.61;31.40;95905.27;1682937;85;21052;-65
2022/05/16 09:17:04;;;;;;;5.58;2.33;;;;;;;23.74;31.41;95898.14;1683185;85;21471;-66
2022/05/16 09:19:55;;;;;;;6.47;2.85;;;;;;;24.11;31.53;95898.36;1682278;85;20982;-66
2022/05/16 09:22:36;;;;;;;2.95;1.80;;;;;;;24.36;30.66;95906.13;1677167;85;21511;-65
2022/05/16 09:25:23;;;;;;;6.00;1.97;;;;;;;24.50;28.78;95912.83;1652021;86;21065;-66
2022/05/16 09:30:48;;;;;;;5.20;2.42;;;;;;;24.84;29.49;95902.38;1630176;88;21487;-65
2022/05/16 09:33:22;;;;;;;4.97;1.90;;;;;;;24.98;29.38;95900.07;1662020;85;21519;-65
2022/05/16 09:36:06;;;;;;;5.53;3.22;;;;;;;25.10;28.42;95895.14;1628343;88;21483;-65
2022/05/16 09:38:33;;;;;;;6.30;3.80;;;;;;;25.21;26.32;95899.31;1628692;88;21016;-65
2022/05/16 09:41:23;;;;;;;4.92;2.58;;;;;;;25.16;28.25;95897.42;1644796;85;21045;-65
2022/05/16 09:43:58;;;;;;;2.40;1.92;;;;;;;25.13;27.01;95897.62;1655005;86;21542;-65
2022/05/16 09:46:41;;;;;;;3.47;1.95;;;;;;;25.04;27.04;95905.02;1659288;86;21105;-65
2022/05/16 09:49:15;;;;;;;5.70;2.85;;;;;;;25.08;26.89;95902.48;1662013;86;21053;-65
2022/05/16 09:51:54;;;;;;;12.88;6.58;;;;;;;25.35;29.01;95897.44;1662716;86;21061;-65
2022/05/16 09:54:37;;;;;;;11.40;5.58;;;;;;;25.33;27.12;95898.92;1663058;86;21474;-65
2022/05/16 09:57:16;;;;;;;;;;;;;;;25.43;27.93;95904.52;1665118;86;21041;-65
2022/05/16 09:59:53;;;;;;;3.50;2.08;;;;;;;25.66;27.76;95891.53;1663098;86;20139;-65
2022/05/16 10:02:31;;;;;;;4.65;1.82;;;;;;;25.86;27.18;95887.38;1662401;86;21105;-65
2022/05/16 10:05:08;;;;;;;5.65;2.55;;;;;;;25.89;25.66;95876.33;1662771;86;21547;-66
2022/05/16 10:07:43;;;;;;;8.88;5.85;;;;;;;25.97;27.44;95874.89;1661698;86;21029;-65
2022/05/16 10:10:20;;;;;;;7.72;3.85;;;;;;;25.89;28.08;95881.73;1662738;86;21479;-66
2022/05/16 10:12:50;;;;;;;4.37;2.20;;;;;;;25.94;29.02;95882.75;1662470;86;21101;-65
2022/05/16 10:15:17;;;;;;;6.08;2.37;;;;;;;26.05;27.82;95880.58;1638065;86;21024;-65
2022/05/16 10:17:46;;;;;;;5.60;2.45;;;;;;;25.82;26.02;95880.43;1662547;86;21057;-65
2022/05/16 10:20:18;;;;;;;7.22;3.15;;;;;;;25.94;27.79;95866.52;1637966;86;21559;-65
2022/05/16 10:22:45;;;;;;;6.00;2.50;;;;;;;25.95;27.11;95866.88;1659729;86;21044;-65
2022/05/16 10:25:18;;;;;;;5.83;2.15;;;;;;;26.16;27.75;95867.12;1662491;86;21110;-65
2022/05/16 10:27:48;;;;;;;5.25;2.12;;;;;;;26.09;27.36;95867.20;1662666;86;21097;-65
2022/05/16 10:30:23;;;;;;;3.22;2.15;;;;;;;26.31;26.78;95861.87;1662746;86;21074;-65
2022/05/16 10:36:01;;;;;;;3.40;2.20;;;;;;;26.33;27.42;95859.92;1662575;86;21093;-65
2022/05/16 10:38:33;;;;;;;3.52;2.52;;;;;;;26.60;26.90;95855.22;1662391;86;21015;-66
2022/05/16 10:41:03;;;;;;;4.30;2.22;;;;;;;26.96;26.66;95852.31;1663424;86;21131;-65
2022/05/16 10:44:23;;;;;;;5.72;2.20;;;;;;;27.25;26.71;95857.76;1662432;86;21037;-65
2022/05/16 10:47:05;;;;;;;5.45;2.12;;;;;;;27.09;25.18;95852.19;1662427;86;21092;-66
2022/05/16 10:49:42;;;;;;;3.58;2.20;;;;;;;27.21;26.07;95856.27;1655166;86;21061;-65
2022/05/16 10:52:32;;;;;;;9.35;2.85;;;;;;;26.90;25.97;95841.95;1645725;87;21614;-65
2022/05/16 10:54:59;;;;;;;2.60;2.33;;;;;;;27.03;26.84;95839.63;1654602;87;21045;-65
2022/05/16 10:57:31;;;;;;;7.17;2.22;;;;;;;26.87;24.89;95839.50;1654585;87;21053;-65
2022/05/16 11:00:13;;;;;;;3.80;2.25;;;;;;;26.89;26.51;95838.04;1655160;87;21409;-65
2022/05/16 11:03:06;;;;;;;5.60;2.40;;;;;;;26.67;26.11;95838.87;1653236;87;21591;-65
2022/05/16 11:06:11;;;;;;;2.98;2.17;;;;;;;26.74;26.74;95838.27;1636507;87;21077;-65
2022/05/16 11:09:11;;;;;;;2.83;1.95;;;;;;;26.86;27.04;95842.31;1654329;87;21045;-65
2022/05/16 11:12:12;;;;;;;6.12;2.80;;;;;;;27.13;26.56;95840.11;1654641;87;21021;-65
2022/05/16 11:15:16;;;;;;;5.08;2.10;;;;;;;26.95;25.71;95842.45;1654261;87;21068;-66
2022/05/16 11:17:58;;;;;;;3.87;2.60;;;;;;;27.09;26.47;95844.06;1645576;87;21057;-66
2022/05/16 11:20:44;;;;;;;3.45;2.30;;;;;;;27.46;28.29;95834.31;1648203;87;21077;-65
2022/05/16 11:23:47;;;;;;;4.40;2.30;;;;;;;27.50;25.26;95829.02;1654810;87;21499;-65
2022/05/16 11:26:36;;;;;;;2.95;2.05;;;;;;;27.39;25.26;95817.72;1654571;87;21069;-65
2022/05/16 11:29:17;;;;;;;5.60;2.35;;;;;;;27.43;26.51;95821.52;1626104;87;21093;-65
2022/05/16 11:31:59;;;;;;;5.20;2.33;;;;;;;27.80;27.39;95817.98;1654581;87;21050;-65
2022/05/16 11:34:43;;;;;;;5.03;2.20;;;;;;;27.89;27.25;95817.22;1637910;87;21495;-65
2022/05/16 11:37:34;;;;;;;2.95;1.90;;;;;;;27.90;26.91;95816.24;1649005;87;21045;-65
2022/05/16 11:40:24;;;;;;;5.90;2.50;;;;;;;28.07;25.75;95815.30;1654668;87;21582;-65
2022/05/16 11:43:05;;;;;;;7.45;3.12;;;;;;;27.89;24.46;95812.30;1654743;87;21077;-66
2022/05/16 11:46:09;;;;;;;4.35;2.33;;;;;;;27.76;26.00;95815.14;1654797;87;21081;-66
2022/05/16 11:49:13;;;;;;;3.50;2.10;;;;;;;27.80;25.41;95814.77;1654432;86;21085;-65
2022/05/16 11:52:03;;;;;;;4.87;2.10;;;;;;;28.08;24.54;95812.47;1654830;87;21022;-65
2022/05/16 11:54:35;;;;;;;3.90;1.90;;;;;;;28.74;24.87;95808.14;1654685;87;21551;-65
2022/05/16 12:03:17;;;;;;;4.70;2.08;;;;;;;29.38;23.04;95802.06;1654732;87;21455;-65
2022/05/16 12:05:51;;;;;;;6.47;2.60;;;;;;;29.84;23.19;95806.92;1654720;87;21565;-65
2022/05/16 12:08:32;;;;;;;4.85;2.30;;;;;;;30.50;23.71;95795.83;1654405;87;21064;-66
2022/05/16 12:11:10;;;;;;;5.35;2.47;;;;;;;30.54;24.22;95801.31;1654835;87;21049;-66
2022/05/16 12:13:56;;;;;;;4.40;2.10;;;;;;;30.63;22.75;95811.34;1654657;87;21547;-66
2022/05/16 12:16:32;;;;;;;3.67;1.98;;;;;;;30.67;22.76;95795.55;1626446;87;21066;-65
2022/05/16 12:19:16;;;;;;;4.28;1.80;;;;;;;30.52;21.55;95787.86;1654429;87;21100;-65
2022/05/16 12:21:57;;;;;;;11.45;2.40;;;;;;;30.90;22.08;95794.24;1654862;86;21452;-65
2022/05/16 12:24:41;;;;;;;3.35;1.90;;;;;;;31.37;21.48;95786.48;1654766;86;21057;-65
2022/05/16 12:27:31;;;;;;;6.67;2.22;;;;;;;31.66;22.35;95779.03;1654638;87;21072;-65
2022/05/16 12:30:02;;;;;;;4.08;2.08;;;;;;;32.27;21.47;95788.34;1650541;87;21026;-66
2022/05/16 12:32:37;;;;;;;4.28;2.02;;;;;;;32.30;19.96;95775.73;1654674;87;21081;-65
2022/05/16 12:35:29;;;;;;;3.10;1.98;;;;;;;32.36;20.28;95781.09;1654716;87;21013;-66
2022/05/16 12:37:56;;;;;;;4.53;2.00;;;;;;;32.58;20.59;95774.27;1654784;87;21040;-66
2022/05/16 12:40:31;;;;;;;6.97;1.95;;;;;;;32.69;19.93;95773.17;1654461;87;21097;-66
2022/05/16 12:43:52;;;;;;;2.80;1.98;;;;;;;32.67;19.10;95771.95;1654548;87;21049;-66